MAS5855 WMKK-WSSS
Flight info
| Callsign | MAS5855 |
|---|---|
| Flight time | 0h 39m |
| Altitude | 27000 |
| Route | RUSBU1D RUSBU Y511 TOPOR A464 ARAMA DCT TEBUN TEBUN1A |
| Aircraft | A359/H-SDE2E3GHIJ3J4J5LM1ORWXY/LB1D1 |
Departure
| Time | 2026-05-04 13:36 |
|---|---|
| Airport | Kuala Lumpur International Airport (WMKK) |
Arrival
| Time | 2026-05-04 14:15 |
|---|---|
| Airport | Singapore Changi Airport (WSSS) |
| Time | Latitude | Longitude | Altitude | Speed | Heading |
|---|---|---|---|---|---|
| 2026-05-04 13:06 | 2.74618 | 101.71216 | 67 ft | 0 kts | 326° |
| 2026-05-04 13:19 | 2.74607 | 101.71223 | 67 ft | 3 kts | 326° |
| 2026-05-04 13:20 | 2.74592 | 101.71234 | 72 ft | 3 kts | 326° |
| 2026-05-04 13:20 | 2.74577 | 101.71244 | 67 ft | 3 kts | 326° |
| 2026-05-04 13:20 | 2.74562 | 101.71253 | 67 ft | 3 kts | 326° |
| 2026-05-04 13:20 | 2.74547 | 101.71263 | 67 ft | 3 kts | 334° |
| 2026-05-04 13:21 | 2.74529 | 101.71269 | 67 ft | 3 kts | 351° |
| 2026-05-04 13:21 | 2.74522 | 101.71270 | 67 ft | 0 kts | 359° |
| 2026-05-04 13:22 | 2.74523 | 101.71270 | 79 ft | 1 kts | 359° |
| 2026-05-04 13:23 | 2.74542 | 101.71274 | 67 ft | 4 kts | 15° |
| 2026-05-04 13:23 | 2.74553 | 101.71281 | 67 ft | 0 kts | 39° |
| 2026-05-04 13:28 | 2.74563 | 101.71290 | 72 ft | 5 kts | 39° |
| 2026-05-04 13:29 | 2.74569 | 101.71311 | 71 ft | 2 kts | 88° |
| 2026-05-04 13:29 | 2.74560 | 101.71327 | 73 ft | 4 kts | 121° |
| 2026-05-04 13:29 | 2.74535 | 101.71362 | 70 ft | 6 kts | 140° |
| 2026-05-04 13:29 | 2.74488 | 101.71395 | 69 ft | 10 kts | 146° |
| 2026-05-04 13:30 | 2.74416 | 101.71442 | 70 ft | 14 kts | 147° |
| 2026-05-04 13:30 | 2.74386 | 101.71523 | 75 ft | 14 kts | 77° |
| 2026-05-04 13:30 | 2.74435 | 101.71600 | 69 ft | 15 kts | 55° |
| 2026-05-04 13:30 | 2.74501 | 101.71697 | 82 ft | 19 kts | 56° |
| 2026-05-04 13:31 | 2.74580 | 101.71813 | 84 ft | 22 kts | 56° |
| 2026-05-04 13:31 | 2.74670 | 101.71946 | 85 ft | 24 kts | 56° |
| 2026-05-04 13:31 | 2.74758 | 101.72077 | 86 ft | 21 kts | 56° |
| 2026-05-04 13:31 | 2.74772 | 101.72098 | 88 ft | 0 kts | 56° |
| 2026-05-04 13:34 | 2.74781 | 101.72111 | 87 ft | 5 kts | 56° |
| 2026-05-04 13:34 | 2.74808 | 101.72148 | 89 ft | 8 kts | 50° |
| 2026-05-04 13:35 | 2.74856 | 101.72172 | 87 ft | 6 kts | 354° |
| 2026-05-04 13:35 | 2.75012 | 101.72090 | 88 ft | 45 kts | 327° |
| 2026-05-04 13:35 | 2.75486 | 101.71772 | 83 ft | 118 kts | 326° |
| 2026-05-04 13:36 | 2.76347 | 101.71192 | 96 ft | 179 kts | 326° |
| 2026-05-04 13:36 | 2.77450 | 101.70445 | 458 ft | 210 kts | 326° |
| 2026-05-04 13:36 | 2.78755 | 101.69564 | 970 ft | 237 kts | 326° |
| 2026-05-04 13:36 | 2.80242 | 101.68783 | 1781 ft | 253 kts | 337° |
| 2026-05-04 13:37 | 2.81767 | 101.68220 | 2547 ft | 257 kts | 340° |
| 2026-05-04 13:37 | 2.83450 | 101.67638 | 3443 ft | 260 kts | 340° |
| 2026-05-04 13:37 | 2.85153 | 101.67039 | 4265 ft | 266 kts | 340° |
| 2026-05-04 13:37 | 2.86313 | 101.66626 | 4800 ft | 269 kts | 340° |
| 2026-05-04 13:38 | 2.88403 | 101.65979 | 5779 ft | 273 kts | 349° |
| 2026-05-04 13:38 | 2.90274 | 101.66025 | 6614 ft | 276 kts | 14° |
| 2026-05-04 13:38 | 2.91975 | 101.66904 | 7437 ft | 280 kts | 40° |
| 2026-05-04 13:38 | 2.93146 | 101.68450 | 8308 ft | 283 kts | 63° |
| 2026-05-04 13:39 | 2.93973 | 101.70253 | 9199 ft | 287 kts | 66° |
| 2026-05-04 13:39 | 2.94630 | 101.72153 | 10088 ft | 291 kts | 76° |
| 2026-05-04 13:39 | 2.94897 | 101.74177 | 10610 ft | 309 kts | 90° |
| 2026-05-04 13:39 | 2.94406 | 101.76333 | 10917 ft | 332 kts | 116° |
| 2026-05-04 13:40 | 2.92948 | 101.78196 | 11227 ft | 352 kts | 138° |
| 2026-05-04 13:40 | 2.91020 | 101.79733 | 11741 ft | 361 kts | 142° |
| 2026-05-04 13:40 | 2.89675 | 101.80760 | 12185 ft | 365 kts | 142° |
| 2026-05-04 13:40 | 2.87015 | 101.82832 | 13122 ft | 370 kts | 141° |
| 2026-05-04 13:41 | 2.84988 | 101.84440 | 13788 ft | 374 kts | 141° |
| 2026-05-04 13:41 | 2.82947 | 101.86073 | 14372 ft | 378 kts | 140° |
| 2026-05-04 13:41 | 2.80892 | 101.87725 | 14979 ft | 381 kts | 140° |
| 2026-05-04 13:42 | 2.76725 | 101.91083 | 16155 ft | 387 kts | 140° |
| 2026-05-04 13:42 | 2.74618 | 101.92784 | 16754 ft | 391 kts | 140° |
| 2026-05-04 13:42 | 2.72492 | 101.94501 | 17356 ft | 394 kts | 140° |
| 2026-05-04 13:42 | 2.70355 | 101.96227 | 17919 ft | 397 kts | 140° |
| 2026-05-04 13:43 | 2.68194 | 101.97972 | 18459 ft | 400 kts | 140° |
| 2026-05-04 13:43 | 2.66018 | 101.99731 | 18927 ft | 404 kts | 140° |
| 2026-05-04 13:43 | 2.63822 | 102.01504 | 19410 ft | 407 kts | 140° |
| 2026-05-04 13:43 | 2.61613 | 102.03288 | 19901 ft | 410 kts | 140° |
| 2026-05-04 13:44 | 2.59385 | 102.05088 | 20388 ft | 413 kts | 140° |
| 2026-05-04 13:44 | 2.57140 | 102.06901 | 20875 ft | 416 kts | 140° |
| 2026-05-04 13:44 | 2.54883 | 102.08722 | 21373 ft | 419 kts | 140° |
| 2026-05-04 13:44 | 2.52616 | 102.10553 | 21867 ft | 422 kts | 140° |
| 2026-05-04 13:45 | 2.50336 | 102.12394 | 22359 ft | 425 kts | 140° |
| 2026-05-04 13:45 | 2.48074 | 102.14220 | 22841 ft | 428 kts | 140° |
| 2026-05-04 13:45 | 2.45739 | 102.16105 | 23327 ft | 432 kts | 140° |
| 2026-05-04 13:45 | 2.43389 | 102.18002 | 23735 ft | 435 kts | 140° |
| 2026-05-04 13:46 | 2.41024 | 102.19911 | 24124 ft | 438 kts | 140° |
| 2026-05-04 13:46 | 2.38647 | 102.21830 | 24531 ft | 441 kts | 140° |
| 2026-05-04 13:46 | 2.36258 | 102.23758 | 24804 ft | 442 kts | 140° |
| 2026-05-04 13:46 | 2.33862 | 102.25692 | 24898 ft | 442 kts | 140° |
| 2026-05-04 13:47 | 2.31476 | 102.27618 | 24906 ft | 443 kts | 140° |
| 2026-05-04 13:47 | 2.29076 | 102.29554 | 24905 ft | 443 kts | 140° |
| 2026-05-04 13:47 | 2.26675 | 102.31492 | 24906 ft | 443 kts | 140° |
| 2026-05-04 13:47 | 2.24281 | 102.33424 | 24907 ft | 443 kts | 140° |
| 2026-05-04 13:48 | 2.21907 | 102.35340 | 24908 ft | 443 kts | 140° |
| 2026-05-04 13:48 | 2.19509 | 102.37275 | 24908 ft | 443 kts | 140° |
| 2026-05-04 13:48 | 2.17123 | 102.39200 | 24909 ft | 443 kts | 140° |
| 2026-05-04 13:48 | 2.14736 | 102.41127 | 24911 ft | 443 kts | 140° |
| 2026-05-04 13:49 | 2.12357 | 102.43046 | 24906 ft | 443 kts | 140° |
| 2026-05-04 13:49 | 2.09963 | 102.44978 | 24911 ft | 443 kts | 140° |
| 2026-05-04 13:49 | 2.07562 | 102.46915 | 24909 ft | 443 kts | 140° |
| 2026-05-04 13:49 | 2.05161 | 102.48852 | 24908 ft | 443 kts | 140° |
| 2026-05-04 13:50 | 2.02817 | 102.50843 | 24904 ft | 442 kts | 135° |
| 2026-05-04 13:50 | 2.00751 | 102.53121 | 24906 ft | 441 kts | 129° |
| 2026-05-04 13:50 | 1.98842 | 102.55525 | 24904 ft | 441 kts | 126° |
| 2026-05-04 13:50 | 1.97001 | 102.57979 | 24903 ft | 441 kts | 126° |
| 2026-05-04 13:51 | 1.95189 | 102.60448 | 24900 ft | 441 kts | 125° |
| 2026-05-04 13:51 | 1.93399 | 102.62890 | 24898 ft | 441 kts | 125° |
| 2026-05-04 13:51 | 1.91577 | 102.65356 | 24901 ft | 441 kts | 126° |
| 2026-05-04 13:51 | 1.89745 | 102.67818 | 24900 ft | 441 kts | 126° |
| 2026-05-04 13:52 | 1.86058 | 102.72729 | 24898 ft | 441 kts | 126° |
| 2026-05-04 13:52 | 1.84210 | 102.75180 | 24897 ft | 441 kts | 126° |
| 2026-05-04 13:52 | 1.82362 | 102.77630 | 24899 ft | 441 kts | 126° |
| 2026-05-04 13:53 | 1.80515 | 102.80080 | 24896 ft | 441 kts | 126° |
| 2026-05-04 13:53 | 1.79297 | 102.81694 | 24896 ft | 441 kts | 126° |
| 2026-05-04 13:53 | 1.76824 | 102.84975 | 24895 ft | 441 kts | 126° |
| 2026-05-04 13:54 | 1.73851 | 102.89100 | 24891 ft | 441 kts | 121° |
| 2026-05-04 13:54 | 1.72319 | 102.91736 | 24888 ft | 441 kts | 118° |
| 2026-05-04 13:54 | 1.69404 | 102.97081 | 24721 ft | 435 kts | 117° |
| 2026-05-04 13:55 | 1.67990 | 102.99743 | 24006 ft | 436 kts | 117° |
| 2026-05-04 13:55 | 1.65122 | 103.05171 | 22004 ft | 447 kts | 117° |
| 2026-05-04 13:55 | 1.63645 | 103.07893 | 21261 ft | 444 kts | 120° |
| 2026-05-04 13:56 | 1.61839 | 103.10354 | 20563 ft | 442 kts | 131° |
| 2026-05-04 13:56 | 1.59574 | 103.12368 | 19888 ft | 440 kts | 143° |
| 2026-05-04 13:56 | 1.54111 | 103.14969 | 18600 ft | 434 kts | 156° |
| 2026-05-04 13:57 | 1.51314 | 103.16070 | 17919 ft | 430 kts | 156° |
| 2026-05-04 13:57 | 1.48557 | 103.17159 | 17200 ft | 426 kts | 156° |
| 2026-05-04 13:58 | 1.40505 | 103.20560 | 15819 ft | 415 kts | 148° |
| 2026-05-04 13:58 | 1.35898 | 103.23970 | 14502 ft | 409 kts | 140° |
| 2026-05-04 13:58 | 1.33719 | 103.25772 | 13861 ft | 404 kts | 140° |
| 2026-05-04 13:59 | 1.31567 | 103.27561 | 13137 ft | 401 kts | 140° |
| 2026-05-04 13:59 | 1.29438 | 103.29337 | 12390 ft | 398 kts | 140° |
| 2026-05-04 13:59 | 1.25229 | 103.32851 | 10942 ft | 391 kts | 140° |
| 2026-05-04 14:00 | 1.23167 | 103.34575 | 10491 ft | 381 kts | 140° |
| 2026-05-04 14:00 | 1.19276 | 103.37827 | 9966 ft | 353 kts | 140° |
| 2026-05-04 14:00 | 1.17428 | 103.39373 | 9722 ft | 340 kts | 140° |
| 2026-05-04 14:01 | 1.15648 | 103.40862 | 9499 ft | 327 kts | 140° |
| 2026-05-04 14:01 | 1.13993 | 103.42352 | 9298 ft | 314 kts | 133° |
| 2026-05-04 14:01 | 1.12074 | 103.46025 | 8760 ft | 298 kts | 99° |
| 2026-05-04 14:02 | 1.11841 | 103.48064 | 8368 ft | 295 kts | 94° |
| 2026-05-04 14:02 | 1.11694 | 103.50104 | 7974 ft | 293 kts | 94° |
| 2026-05-04 14:02 | 1.11557 | 103.52126 | 7596 ft | 291 kts | 94° |
| 2026-05-04 14:02 | 1.11423 | 103.54136 | 7198 ft | 289 kts | 94° |
| 2026-05-04 14:03 | 1.11377 | 103.54816 | 7068 ft | 289 kts | 94° |
| 2026-05-04 14:03 | 1.11156 | 103.58126 | 6429 ft | 286 kts | 94° |
| 2026-05-04 14:03 | 1.11025 | 103.60098 | 6035 ft | 285 kts | 94° |
| 2026-05-04 14:03 | 1.10893 | 103.62069 | 5645 ft | 283 kts | 94° |
| 2026-05-04 14:04 | 1.10633 | 103.65972 | 4867 ft | 280 kts | 94° |
| 2026-05-04 14:04 | 1.10504 | 103.67912 | 4469 ft | 279 kts | 94° |
| 2026-05-04 14:04 | 1.10376 | 103.69833 | 4068 ft | 277 kts | 94° |
| 2026-05-04 14:05 | 1.10123 | 103.73647 | 3306 ft | 274 kts | 94° |
| 2026-05-04 14:05 | 1.09998 | 103.75519 | 3051 ft | 271 kts | 94° |
| 2026-05-04 14:05 | 1.09874 | 103.77383 | 2991 ft | 271 kts | 94° |
| 2026-05-04 14:06 | 1.09750 | 103.79238 | 2989 ft | 272 kts | 94° |
| 2026-05-04 14:06 | 1.09625 | 103.81122 | 2995 ft | 271 kts | 94° |
| 2026-05-04 14:06 | 1.09499 | 103.83005 | 2995 ft | 271 kts | 94° |
| 2026-05-04 14:06 | 1.09378 | 103.84886 | 2996 ft | 271 kts | 93° |
| 2026-05-04 14:07 | 1.09551 | 103.86737 | 2994 ft | 270 kts | 72° |
| 2026-05-04 14:07 | 1.10462 | 103.88237 | 3024 ft | 242 kts | 43° |
| 2026-05-04 14:07 | 1.11767 | 103.89063 | 3044 ft | 212 kts | 21° |
| 2026-05-04 14:07 | 1.13091 | 103.89532 | 3027 ft | 199 kts | 17° |
| 2026-05-04 14:08 | 1.13573 | 103.89687 | 3019 ft | 192 kts | 17° |
| 2026-05-04 14:09 | 1.15085 | 103.90169 | 3021 ft | 156 kts | 17° |
| 2026-05-04 14:09 | 1.16046 | 103.90479 | 3022 ft | 141 kts | 17° |
| 2026-05-04 14:10 | 1.17905 | 103.91084 | 2803 ft | 139 kts | 17° |
| 2026-05-04 14:10 | 1.18840 | 103.91389 | 2416 ft | 144 kts | 17° |
| 2026-05-04 14:10 | 1.19805 | 103.91705 | 2093 ft | 145 kts | 18° |
| 2026-05-04 14:10 | 1.20741 | 103.91941 | 2027 ft | 138 kts | 8° |
| 2026-05-04 14:11 | 1.21663 | 103.92225 | 2023 ft | 141 kts | 26° |
| 2026-05-04 14:11 | 1.23438 | 103.93016 | 2012 ft | 142 kts | 18° |
| 2026-05-04 14:11 | 1.24357 | 103.93332 | 2017 ft | 142 kts | 19° |
| 2026-05-04 14:12 | 1.25272 | 103.93685 | 1996 ft | 143 kts | 22° |
| 2026-05-04 14:12 | 1.26190 | 103.94057 | 1824 ft | 142 kts | 21° |
| 2026-05-04 14:12 | 1.27996 | 103.94822 | 1466 ft | 140 kts | 23° |
| 2026-05-04 14:13 | 1.28888 | 103.95196 | 1290 ft | 140 kts | 23° |
| 2026-05-04 14:13 | 1.29770 | 103.95570 | 1105 ft | 139 kts | 23° |
| 2026-05-04 14:13 | 1.30652 | 103.95943 | 944 ft | 138 kts | 23° |
| 2026-05-04 14:13 | 1.31529 | 103.96314 | 784 ft | 137 kts | 23° |
| 2026-05-04 14:14 | 1.32403 | 103.96685 | 632 ft | 137 kts | 23° |
| 2026-05-04 14:14 | 1.34114 | 103.97411 | 250 ft | 135 kts | 22° |
| 2026-05-04 14:14 | 1.34966 | 103.97775 | 83 ft | 135 kts | 22° |
| 2026-05-04 14:15 | 1.36198 | 103.98293 | 38 ft | 52 kts | 23° |
| 2026-05-04 14:15 | 1.36628 | 103.98492 | 39 ft | 33 kts | 40° |
| 2026-05-04 14:16 | 1.36723 | 103.98596 | 38 ft | 0 kts | 53° |
| 2026-05-04 14:16 | 1.36728 | 103.98602 | 38 ft | 3 kts | 53° |
| 2026-05-04 14:17 | 1.36791 | 103.98686 | 38 ft | 12 kts | 52° |
| 2026-05-04 14:17 | 1.36838 | 103.98757 | 38 ft | 10 kts | 80° |
| 2026-05-04 14:17 | 1.36785 | 103.98903 | 39 ft | 15 kts | 116° |
| 2026-05-04 14:18 | 1.36737 | 103.99009 | 39 ft | 19 kts | 113° |
| 2026-05-04 14:18 | 1.36613 | 103.99289 | 39 ft | 24 kts | 124° |
| 2026-05-04 14:19 | 1.36589 | 103.99310 | 39 ft | 0 kts | 155° |